Time;durP1;ratioP1;P1;durP2;ratioP2;P2;SDS_P1;SDS_P2;PMS_P1;PMS_P2;Temp;Humidity;BMP_temperature;BMP_pressure;BME280_temperature;BME280_humidity;BME280_pressure;Samples;Min_cycle;Max_cycle;Signal;HPM_P1;HPM_P2
2022/05/02 00:00:46;;;;;;;0.30;0.30;;;12.10;99.90;;;-141.50;100.00;62695.63;5005832;28;20665;-68
2022/05/02 00:03:13;;;;;;;1.37;1.27;;;12.00;99.90;;;-141.50;100.00;62695.63;5002022;28;20659;-69
2022/05/02 00:05:41;;;;;;;0.30;0.27;;;11.90;99.90;;;-141.50;100.00;62695.63;4994239;28;20622;-69
2022/05/02 00:08:08;;;;;;;0.30;0.20;;;11.90;99.90;;;-141.50;100.00;62695.63;5002563;28;20633;-68
2022/05/02 00:10:36;;;;;;;0.30;0.20;;;11.90;99.90;;;-141.50;100.00;62695.63;4994478;28;20645;-70
2022/05/02 00:13:04;;;;;;;0.30;0.30;;;12.00;99.90;;;-141.50;100.00;62695.63;4993658;28;20716;-69
2022/05/02 00:15:31;;;;;;;0.30;0.20;;;11.90;99.90;;;-141.50;100.00;62695.63;5010396;28;20645;-69
2022/05/02 00:18:02;;;;;;;0.50;0.50;;;11.90;99.90;;;-141.50;100.00;62695.63;5013602;28;20629;-69
2022/05/02 00:20:35;;;;;;;0.30;0.30;;;11.70;99.90;;;-141.50;100.00;62695.63;5012833;28;20677;-69
2022/05/02 00:23:05;;;;;;;0.30;0.20;;;11.80;99.90;;;-141.50;100.00;62695.63;4995794;28;21008;-69
2022/05/02 00:25:33;;;;;;;0.30;0.30;;;11.80;99.90;;;-141.50;100.00;62695.63;5011637;28;20628;-69
2022/05/02 00:28:00;;;;;;;0.40;0.40;;;11.80;99.90;;;-141.50;100.00;62695.63;5012463;28;20708;-69
2022/05/02 00:30:28;;;;;;;0.30;0.30;;;11.80;99.90;;;-141.50;100.00;62695.63;5011711;28;20660;-69
2022/05/02 00:32:57;;;;;;;0.30;0.30;;;11.70;99.90;;;-141.50;100.00;62695.63;5009599;28;20622;-66
2022/05/02 00:35:24;;;;;;;6.27;2.63;;;11.70;99.90;;;-141.50;100.00;62695.63;5004057;28;20657;-70
2022/05/02 00:37:51;;;;;;;0.30;0.20;;;11.70;99.90;;;-141.50;100.00;62695.63;5019989;28;20636;-69
2022/05/02 00:40:18;;;;;;;0.30;0.30;;;11.70;99.90;;;-141.50;100.00;62695.63;5012054;28;20633;-69
2022/05/02 00:42:47;;;;;;;0.30;0.20;;;11.60;99.90;;;-141.50;100.00;62695.63;5013292;28;20712;-69
2022/05/02 00:45:17;;;;;;;0.30;0.20;;;11.60;99.90;;;-141.50;100.00;62695.63;5012269;28;20632;-69
2022/05/02 00:47:56;;;;;;;0.30;0.30;;;11.60;99.90;;;-141.50;100.00;62695.63;5012266;28;20610;-68
2022/05/02 00:50:42;;;;;;;0.30;0.27;;;11.60;99.90;;;-141.50;100.00;62695.63;4994327;28;20633;-69
2022/05/02 00:53:14;;;;;;;0.50;0.50;;;11.60;99.90;;;-141.50;100.00;62695.63;5002331;28;20625;-69
2022/05/02 00:55:43;;;;;;;0.30;0.20;;;11.60;99.90;;;-141.50;100.00;62695.63;5013225;28;21261;-69
2022/05/02 00:58:11;;;;;;;0.37;0.37;;;11.60;99.90;;;-141.50;100.00;62695.63;5011220;28;20637;-69
2022/05/02 01:00:39;;;;;;;0.30;0.20;;;11.60;99.90;;;-141.50;100.00;62695.63;5002849;28;20787;-69
2022/05/02 01:03:09;;;;;;;0.30;0.20;;;11.50;99.90;;;-141.50;100.00;62695.63;5004652;28;20625;-69
2022/05/02 01:07:08;;;;;;;0.30;0.20;;;11.50;99.90;;;-141.50;100.00;62695.63;4994198;28;20618;-69
2022/05/02 01:08:28;;;;;;;0.30;0.30;;;11.50;99.90;;;-141.50;100.00;62695.63;4994593;28;20694;-69
2022/05/02 01:10:57;;;;;;;0.30;0.30;;;11.50;99.90;;;-141.50;100.00;62695.63;5005860;28;20751;-69
2022/05/02 01:13:53;;;;;;;0.30;0.20;;;11.40;99.90;;;-141.50;100.00;62695.63;5010029;28;20625;-68
2022/05/02 01:16:29;;;;;;;0.30;0.27;;;11.40;99.90;;;-141.50;100.00;62695.63;4993866;28;20653;-70
2022/05/02 01:18:58;;;;;;;0.30;0.20;;;11.40;99.90;;;-141.50;100.00;62695.63;4999285;28;20688;-68
2022/05/02 01:21:29;;;;;;;0.30;0.20;;;11.40;99.90;;;-141.50;100.00;62695.63;5003822;28;21250;-68
2022/05/02 01:24:00;;;;;;;0.30;0.30;;;11.40;99.90;;;-141.50;100.00;62695.63;5011035;28;20712;-69
2022/05/02 01:26:29;;;;;;;0.50;0.50;;;11.30;99.90;;;-141.50;100.00;62695.63;5011169;28;20748;-68
2022/05/02 01:29:00;;;;;;;0.30;0.30;;;11.30;99.90;;;-141.50;100.00;62695.63;5012287;28;20613;-68
2022/05/02 01:31:27;;;;;;;0.30;0.20;;;11.30;99.90;;;-141.50;100.00;62695.63;5018957;23;21328;-64
2022/05/02 01:33:55;;;;;;;0.50;0.50;;;11.20;99.90;;;-141.50;100.00;62695.63;4992884;28;20614;-65
2022/05/02 01:36:23;;;;;;;0.30;0.20;;;11.20;99.90;;;-141.50;100.00;62695.63;4979699;28;20616;-64
2022/05/02 01:38:50;;;;;;;;;;;11.20;99.90;;;-141.50;100.00;62695.63;4968313;28;20489;-64
2022/05/02 01:41:17;;;;;;;;;;;11.10;99.90;;;-141.50;100.00;62695.63;4947918;29;19998;-64
2022/05/02 01:43:45;;;;;;;;;;;11.10;99.90;;;-141.50;100.00;62695.63;4936305;29;21570;-64
2022/05/02 01:46:13;;;;;;;;;;;11.10;99.90;;;-141.50;100.00;62695.63;4952565;29;20358;-64
2022/05/02 01:48:40;;;;;;;;;;;11.10;99.90;;;-141.50;100.00;62695.63;4971702;28;19926;-64
2022/05/02 01:51:07;;;;;;;;;;;11.10;99.90;;;-141.50;100.00;62695.63;4961323;28;19933;-65
2022/05/02 01:53:34;;;;;;;;;;;11.10;99.90;;;-141.50;100.00;62695.63;4933282;29;19923;-64
2022/05/02 01:56:01;;;;;;;;;;;11.10;99.90;;;-141.50;100.00;62695.63;4952472;28;19922;-64
2022/05/02 01:58:27;;;;;;;;;;;11.10;99.90;;;-141.50;100.00;62695.63;4953661;28;19927;-64
2022/05/02 02:00:54;;;;;;;;;;;11.10;99.90;;;-141.50;100.00;62695.63;4953131;28;19957;-65
2022/05/02 02:03:21;;;;;;;;;;;11.00;99.90;;;-141.50;100.00;62695.63;4969618;28;19929;-65
2022/05/02 02:05:49;;;;;;;;;;;10.90;99.90;;;-141.50;100.00;62695.63;4968445;28;19926;-64
2022/05/02 02:08:18;;;;;;;;;;;10.90;99.90;;;-141.50;100.00;62695.63;4946284;29;20017;-64
2022/05/02 02:10:46;;;;;;;;;;;10.90;99.90;;;-141.50;100.00;62695.63;4952399;29;20041;-64
2022/05/02 02:13:14;;;;;;;;;;;10.80;99.90;;;-141.50;100.00;62695.63;4951637;28;19922;-64
2022/05/02 02:15:41;;;;;;;;;;;10.80;99.90;;;-141.50;100.00;62695.63;4950896;29;20404;-64
2022/05/02 02:18:08;;;;;;;;;;;10.90;99.90;;;-141.50;100.00;62695.63;4953513;28;19927;-64
2022/05/02 02:20:35;;;;;;;;;;;10.80;99.90;;;-141.50;100.00;62695.63;4951623;28;19923;-64
2022/05/02 02:23:03;;;;;;;;;;;10.70;99.90;;;-141.50;100.00;62695.63;4934453;29;19923;-64
2022/05/02 02:25:31;;;;;;;;;;;10.80;99.90;;;-141.50;100.00;62695.63;4933556;29;20002;-65
2022/05/02 02:27:59;;;;;;;;;;;10.80;99.90;;;-141.50;100.00;62695.63;4949843;28;20151;-64
2022/05/02 02:30:27;;;;;;;;;;;10.70;99.90;;;-141.50;100.00;62695.63;4953374;28;19926;-65
2022/05/02 02:32:55;;;;;;;;;;;10.70;99.90;;;-141.50;100.00;62695.63;4963247;28;19932;-64
2022/05/02 02:35:22;;;;;;;;;;;10.70;99.90;;;-141.50;100.00;62695.63;4971933;28;20307;-64
2022/05/02 02:37:49;;;;;;;;;;;10.70;99.90;;;-141.50;100.00;62695.63;4956518;28;20323;-64
2022/05/02 02:40:16;;;;;;;;;;;10.70;99.90;;;-141.50;100.00;62695.63;4951558;29;19928;-64
2022/05/02 02:42:44;;;;;;;;;;;10.60;99.90;;;-141.50;100.00;62695.63;4950118;28;20005;-62
2022/05/02 02:45:11;;;;;;;;;;;10.70;99.90;;;-141.50;100.00;62695.63;4952865;28;19961;-64
2022/05/02 02:47:38;;;;;;;;;;;10.60;99.90;;;-141.50;100.00;62695.63;4951852;28;19932;-65
2022/05/02 02:50:05;;;;;;;;;;;10.60;99.90;;;-141.50;100.00;62695.63;4951853;28;19922;-64
2022/05/02 02:52:32;;;;;;;;;;;10.60;99.90;;;-141.50;100.00;62695.63;4952495;28;19922;-65
2022/05/02 02:54:59;;;;;;;;;;;10.60;99.90;;;-141.50;100.00;62695.63;4952295;28;20390;-64
2022/05/02 02:57:26;;;;;;;;;;;10.60;99.90;;;-141.50;100.00;62695.63;4952002;29;19941;-65
2022/05/02 02:59:53;;;;;;;;;;;10.50;99.90;;;-141.50;100.00;62695.63;4950939;28;20300;-64
2022/05/02 03:02:20;;;;;;;;;;;10.50;99.90;;;-141.50;100.00;62695.63;4945125;28;19923;-64
2022/05/02 03:07:33;;;;;;;;;;;10.50;99.90;;;-141.50;100.00;62695.63;4953810;28;19930;-64
2022/05/02 03:10:00;;;;;;;;;;;10.50;99.90;;;-141.50;100.00;62695.63;4940931;28;19930;-65
2022/05/02 03:12:27;;;;;;;;;;;10.50;99.90;;;-141.50;100.00;62695.63;4959853;28;20023;-65
2022/05/02 03:14:53;;;;;;;;;;;10.40;99.90;;;-141.50;100.00;62695.63;4965765;28;19922;-64
2022/05/02 03:17:20;;;;;;;;;;;10.40;99.90;;;-141.50;100.00;62695.63;4945340;29;19923;-64
2022/05/02 03:19:47;;;;;;;;;;;10.50;99.90;;;-141.50;100.00;62695.63;4933164;29;20007;-64
2022/05/02 03:22:14;;;;;;;;;;;10.40;99.90;;;-141.50;100.00;62695.63;4963152;28;19922;-67
2022/05/02 03:24:41;;;;;;;;;;;10.40;99.90;;;-141.50;100.00;62695.63;4933116;29;20373;-64
2022/05/02 03:27:08;;;;;;;;;;;10.30;99.90;;;-141.50;100.00;62695.63;4933120;29;19929;-67
2022/05/02 03:29:36;;;;;;;;;;;10.30;99.90;;;-141.50;100.00;62695.63;4933094;29;19929;-65
2022/05/02 03:32:03;;;;;;;;;;;10.20;99.90;;;-141.50;100.00;62695.63;4931845;29;19930;-65
2022/05/02 03:34:30;;;;;;;;;;;10.20;99.90;;;-141.50;100.00;62695.63;4964560;28;19926;-65
2022/05/02 03:36:56;;;;;;;;;;;10.10;99.90;;;-141.50;100.00;62695.63;4937223;28;20005;-65
2022/05/02 03:39:23;;;;;;;;;;;10.10;99.90;;;-141.50;100.00;62695.63;4967604;28;19922;-65
2022/05/02 03:41:50;;;;;;;;;;;10.00;99.90;;;-141.50;100.00;62695.63;4970158;28;19929;-65
2022/05/02 03:44:17;;;;;;;;;;;10.00;99.90;;;-141.50;100.00;62695.63;4933375;28;19923;-65
2022/05/02 03:46:44;;;;;;;;;;;10.00;99.90;;;-141.50;100.00;62695.63;4943841;28;19922;-66
2022/05/02 03:49:10;;;;;;;;;;;10.00;99.90;;;-141.50;100.00;62695.63;4933742;29;19923;-65
2022/05/02 03:51:37;;;;;;;;;;;10.00;99.90;;;-141.50;100.00;62695.63;4932936;29;19935;-65
2022/05/02 03:54:04;;;;;;;;;;;10.00;99.90;;;-141.50;100.00;62695.63;4927443;29;20285;-65
2022/05/02 03:56:31;;;;;;;;;;;9.90;99.90;;;-141.50;100.00;62695.63;4931672;29;19923;-66
2022/05/02 03:58:58;;;;;;;;;;;10.00;99.90;;;-141.50;100.00;62695.63;4931879;29;19929;-65
2022/05/02 04:01:24;;;;;;;;;;;10.00;99.90;;;-141.50;100.00;62695.63;4939903;28;19922;-65
2022/05/02 04:03:51;;;;;;;;;;;10.00;99.90;;;-141.50;100.00;62695.63;4961996;28;19922;-65
2022/05/02 04:06:18;;;;;;;;;;;10.00;99.90;;;-141.50;100.00;62695.63;4943457;28;20341;-65
2022/05/02 04:08:46;;;;;;;;;;;10.00;99.90;;;-141.50;100.00;62695.63;4944201;29;19929;-65
2022/05/02 04:11:12;;;;;;;;;;;10.00;99.90;;;-141.50;100.00;62695.63;4957423;28;19926;-65
2022/05/02 04:13:39;;;;;;;;;;;10.00;99.90;;;-141.50;100.00;62695.63;4970131;28;19948;-65
2022/05/02 04:16:06;;;;;;;;;;;10.00;99.90;;;-141.50;100.00;62695.63;4942144;29;19922;-65
2022/05/02 04:18:33;;;;;;;;;;;10.00;99.90;;;-141.50;100.00;62695.63;4958556;28;19944;-65
2022/05/02 04:21:00;;;;;;;;;;;10.00;99.90;;;-141.50;100.00;62695.63;4964485;28;20099;-65
2022/05/02 04:23:26;;;;;;;;;;;10.00;99.90;;;-141.50;100.00;62695.63;4951506;28;19923;-64
2022/05/02 04:25:53;;;;;;;;;;;10.00;99.90;;;-141.50;100.00;62695.63;4932816;29;20312;-66
2022/05/02 04:28:20;;;;;;;;;;;10.00;99.90;;;-141.50;100.00;62695.63;4931905;29;19933;-66
2022/05/02 04:30:47;;;;;;;;;;;10.10;99.90;;;-141.50;100.00;62695.63;4962904;28;19923;-66
2022/05/02 04:33:14;;;;;;;;;;;10.10;99.90;;;-141.50;100.00;62695.63;4966135;28;19929;-65
2022/05/02 04:35:41;;;;;;;;;;;10.20;99.90;;;-141.50;100.00;62695.63;4968534;28;20021;-66
2022/05/02 04:38:08;;;;;;;;;;;10.30;99.90;;;-141.50;100.00;62695.63;4964804;28;19932;-65
2022/05/02 04:40:35;;;;;;;;;;;10.40;99.90;;;-141.50;100.00;62695.63;4932656;29;20009;-65
2022/05/02 04:43:01;;;;;;;;;;;10.50;99.90;;;-141.50;100.00;62695.63;4931349;29;20022;-65
2022/05/02 04:45:28;;;;;;;;;;;10.60;99.90;;;-141.50;100.00;62695.63;4931960;29;19923;-65
2022/05/02 04:47:57;;;;;;;;;;;10.80;99.90;;;-141.50;100.00;62695.63;4933243;29;20360;-65
2022/05/02 04:50:24;;;;;;;;;;;10.90;99.90;;;-141.50;100.00;62695.63;4935784;29;19923;-66
2022/05/02 04:52:51;;;;;;;;;;;11.10;99.90;;;-141.50;100.00;62695.63;4948416;29;20322;-66
2022/05/02 04:55:18;;;;;;;;;;;11.30;99.90;;;-141.50;100.00;62695.63;4953781;29;20373;-66
2022/05/02 04:57:45;;;;;;;;;;;11.40;99.90;;;-141.50;100.00;62695.63;4953388;28;19922;-66
2022/05/02 05:00:14;;;;;;;;;;;11.60;99.90;;;-141.50;100.00;62695.63;4948040;28;19923;-66
2022/05/02 05:02:41;;;;;;;;;;;11.70;99.90;;;-141.50;100.00;62695.63;4966258;28;19922;-64
2022/05/02 05:05:09;;;;;;;0.40;0.30;;;11.90;99.90;;;-141.50;100.00;62695.63;4970832;28;20994;-66
2022/05/02 05:07:37;;;;;;;0.30;0.20;;;11.90;99.90;;;-141.50;100.00;62695.63;4928873;28;20204;-66
2022/05/02 05:10:06;;;;;;;0.30;0.30;;;12.00;99.90;;;-141.50;100.00;62695.63;4940081;28;20624;-66
2022/05/02 05:13:03;;;;;;;0.30;0.20;;;11.90;99.90;;;-141.50;100.00;62695.63;4934174;29;20692;-66
2022/05/02 05:19:25;;;;;;;0.30;0.20;;;12.10;99.90;;;-141.50;100.00;62695.63;4934865;29;21274;-66
2022/05/02 05:22:14;;;;;;;0.30;0.30;;;12.00;99.90;;;-141.50;100.00;62695.63;4936693;29;20683;-66
2022/05/02 05:25:09;;;;;;;0.30;0.20;;;12.10;99.90;;;-141.50;100.00;62695.63;4973189;28;20642;-66
2022/05/02 05:28:51;;;;;;;0.30;0.30;;;12.20;99.90;;;-141.50;100.00;62695.63;4954190;28;20635;-66
2022/05/02 05:31:31;;;;;;;0.30;0.30;;;12.30;99.90;;;-141.50;100.00;62695.63;4918398;29;21037;-66
2022/05/02 05:34:30;;;;;;;0.30;0.30;;;12.50;99.90;;;-141.50;100.00;62695.63;4932612;29;21336;-66
2022/05/02 05:36:57;;;;;;;0.30;0.20;;;12.70;99.90;;;-141.50;100.00;62695.63;4934432;29;20676;-66
2022/05/02 05:40:17;;;;;;;0.30;0.30;;;12.90;99.90;;;-141.50;100.00;62695.63;4945292;28;20644;-66
2022/05/02 05:43:23;;;;;;;0.30;0.20;;;13.20;99.90;;;-141.50;100.00;62695.63;4943427;28;21283;-65
2022/05/02 05:46:01;;;;;;;0.30;0.20;;;13.70;99.90;;;-141.50;100.00;62695.63;4938085;28;20650;-66
2022/05/02 05:48:59;;;;;;;0.30;0.20;;;14.00;99.90;;;-141.50;100.00;62695.63;4953393;29;21185;-67
2022/05/02 05:51:50;;;;;;;0.30;0.20;;;14.30;99.90;;;-141.50;100.00;62695.63;4945828;28;20780;-66
2022/05/02 05:55:13;;;;;;;0.30;0.30;;;14.80;99.90;;;-141.50;100.00;62695.63;4950869;29;20735;-66
2022/05/02 05:58:16;;;;;;;0.30;0.30;;;15.20;99.90;;;-141.50;100.00;62695.63;4952697;28;20628;-66
2022/05/02 06:00:44;;;;;;;0.30;0.30;;;15.80;99.90;;;-141.50;100.00;62695.63;4953993;29;20604;-66
2022/05/02 06:03:15;;;;;;;0.30;0.20;;;16.50;99.90;;;-141.50;100.00;62695.63;4953060;28;20655;-67
2022/05/02 06:05:45;;;;;;;0.30;0.30;;;17.00;99.90;;;-141.50;100.00;62695.63;4951314;28;20652;-66
2022/05/02 06:08:26;;;;;;;0.30;0.30;;;17.40;99.90;;;-141.50;100.00;62695.63;4978498;28;20639;-66
2022/05/02 06:10:58;;;;;;;0.30;0.30;;;17.60;99.90;;;-141.50;100.00;62695.63;4941944;28;20627;-67
2022/05/02 06:13:29;;;;;;;0.30;0.30;;;18.20;99.90;;;-141.50;100.00;62695.63;4959060;28;20644;-67
2022/05/02 06:19:06;;;;;;;0.67;0.67;;;19.30;98.40;;;-141.50;100.00;62695.63;4952175;28;20620;-66
2022/05/02 06:21:33;;;;;;;0.30;0.30;;;20.30;96.80;;;-141.50;100.00;62695.63;4950776;28;20656;-66
2022/05/02 06:24:04;;;;;;;0.30;0.30;;;21.20;94.60;;;-141.50;100.00;62695.63;4963463;28;20697;-66
2022/05/02 06:26:31;;;;;;;0.30;0.30;;;22.00;91.90;;;-141.50;100.00;62695.63;4970799;28;20718;-66
2022/05/02 06:28:58;;;;;;;0.30;0.30;;;22.40;90.10;;;-141.50;100.00;62695.63;4942332;28;20652;-66
2022/05/02 06:31:28;;;;;;;0.30;0.30;;;22.60;87.30;;;-141.50;100.00;62695.63;4933706;29;20651;-66
2022/05/02 06:33:57;;;;;;;0.30;0.30;;;22.80;84.70;;;-141.50;100.00;62695.63;4964091;28;20641;-66
2022/05/02 06:36:35;;;;;;;0.30;0.30;;;22.90;82.30;;;-141.50;100.00;62695.63;4963824;28;20629;-66
2022/05/02 06:39:16;;;;;;;3.43;2.10;;;22.70;81.30;;;-141.50;100.00;62695.63;4946633;29;20640;-66
2022/05/02 06:42:28;;;;;;;0.30;0.30;;;23.10;81.10;;;-141.50;100.00;62695.63;4933248;29;20736;-66
2022/05/02 06:45:29;;;;;;;0.30;0.30;;;23.90;77.60;;;-141.50;100.00;62695.63;4963770;28;20637;-66
2022/05/02 06:48:29;;;;;;;0.30;0.30;;;25.30;72.70;;;-141.50;100.00;62695.63;4964695;28;20639;-66
2022/05/02 06:51:21;;;;;;;0.30;0.30;;;25.80;69.20;;;-141.50;100.00;62695.63;4938884;29;20733;-67
2022/05/02 06:54:16;;;;;;;0.30;0.30;;;27.20;65.20;;;-141.50;100.00;62695.63;4948298;28;21011;-67
2022/05/02 06:57:07;;;;;;;0.30;0.30;;;28.20;61.90;;;-141.50;100.00;62695.63;4954454;28;20625;-66
2022/05/02 07:00:04;;;;;;;0.30;0.30;;;28.70;59.00;;;-141.50;100.00;62695.63;4952763;28;20654;-66
2022/05/02 07:02:58;;;;;;;0.30;0.30;;;29.00;57.50;;;-141.50;100.00;62695.63;4961012;28;20668;-67
2022/05/02 07:05:43;;;;;;;0.40;0.40;;;29.00;57.10;;;-141.50;100.00;62695.63;4937033;28;20671;-67
2022/05/02 07:08:20;;;;;;;0.53;0.53;;;29.80;55.60;;;-141.50;100.00;62695.63;4946469;28;20646;-67
2022/05/02 07:10:58;;;;;;;0.40;0.40;;;30.10;53.90;;;-141.50;100.00;62695.63;4947049;28;20656;-67
2022/05/02 07:13:33;;;;;;;0.40;0.40;;;30.20;53.60;;;-141.50;100.00;62695.63;4948743;28;20609;-66
2022/05/02 07:16:22;;;;;;;0.30;0.30;;;30.20;53.40;;;-141.50;100.00;62695.63;4965112;28;20635;-68
2022/05/02 07:19:19;;;;;;;0.30;0.30;;;31.00;51.70;;;-141.50;100.00;62695.63;4963174;28;20820;-66
2022/05/02 07:22:02;;;;;;;0.30;0.30;;;31.30;51.60;;;-141.50;100.00;62695.63;4950416;28;20715;-66
2022/05/02 07:24:45;;;;;;;0.30;0.30;;;31.40;50.70;;;-141.50;100.00;62695.63;4935669;29;20641;-67
2022/05/02 07:27:40;;;;;;;0.33;0.30;;;30.50;51.30;;;-141.50;100.00;62695.63;4932705;29;20680;-67
2022/05/02 07:30:08;;;;;;;0.30;0.30;;;30.30;51.90;;;-141.50;100.00;62695.63;4932175;29;20645;-67
2022/05/02 07:32:35;;;;;;;0.30;0.30;;;30.20;51.80;;;-141.50;100.00;62695.63;4933617;29;20751;-67
2022/05/02 07:35:03;;;;;;;0.30;0.30;;;30.10;52.20;;;-141.50;100.00;62695.63;4946805;29;20648;-66
2022/05/02 07:37:34;;;;;;;0.30;0.30;;;30.10;51.70;;;-141.50;100.00;62695.63;4941624;29;20609;-67
2022/05/02 07:40:05;;;;;;;0.30;0.30;;;29.80;51.90;;;-141.50;100.00;62695.63;4950904;28;21274;-67
2022/05/02 07:42:36;;;;;;;0.30;0.30;;;29.40;52.20;;;-141.50;100.00;62695.63;4951274;28;21299;-67
2022/05/02 07:45:07;;;;;;;0.80;0.80;;;29.20;52.70;;;-141.50;100.00;62695.63;4932650;29;21195;-66
2022/05/02 07:47:35;;;;;;;0.30;0.30;;;29.40;52.60;;;-141.50;100.00;62695.63;4949633;28;20738;-66
2022/05/02 07:50:05;;;;;;;0.30;0.30;;;29.40;52.40;;;-141.50;100.00;62695.63;4950937;28;20618;-67
2022/05/02 07:52:39;;;;;;;0.30;0.30;;;29.90;51.40;;;-141.50;100.00;62695.63;4951617;28;20663;-66
2022/05/02 07:55:09;;;;;;;1.10;1.07;;;30.30;51.30;;;-141.50;100.00;62695.63;4954489;28;20744;-67
2022/05/02 07:57:39;;;;;;;0.60;0.60;;;30.90;50.70;;;-141.50;100.00;62695.63;4970758;28;20722;-67
2022/05/02 08:00:10;;;;;;;0.50;0.50;;;31.20;49.50;;;-141.50;100.00;62695.63;4946801;28;21105;-67
2022/05/02 08:02:37;;;;;;;0.40;0.40;;;30.50;50.10;;;-141.50;100.00;62695.63;4932802;29;20707;-67
2022/05/02 08:05:06;;;;;;;0.53;0.53;;;29.50;50.90;;;-141.50;100.00;62695.63;4946700;28;20639;-67
2022/05/02 08:07:42;;;;;;;2.70;0.60;;;29.00;52.40;;;-141.50;100.00;62695.63;4948076;28;20647;-68
2022/05/02 08:10:44;;;;;;;0.30;0.30;;;29.90;52.00;;;-141.50;100.00;62695.63;4944917;28;21011;-67
2022/05/02 08:14:03;;;;;;;0.30;0.30;;;30.30;51.30;;;-141.50;100.00;62695.63;4961448;28;20725;-67
2022/05/02 08:16:35;;;;;;;0.30;0.30;;;30.50;50.40;;;-141.50;100.00;62695.63;4930773;29;20741;-67
2022/05/02 08:19:50;;;;;;;0.40;0.30;;;30.90;50.40;;;-141.50;100.00;62695.63;4931621;29;20637;-67
2022/05/02 08:29:19;;;;;;;0.40;0.40;;;33.90;46.70;;;-141.50;100.00;62695.63;4938088;29;20633;-64
2022/05/02 08:32:17;;;;;;;1.10;1.07;;;34.50;45.70;;;-141.50;100.00;62695.63;4946980;28;20748;-64
2022/05/02 08:34:46;;;;;;;0.40;0.40;;;35.00;45.30;;;-141.50;100.00;62695.63;4951533;28;21060;-65
2022/05/02 08:37:50;;;;;;;0.40;0.40;;;35.50;43.60;;;-141.50;100.00;62695.63;4951447;28;20613;-68
2022/05/02 08:40:26;;;;;;;1.30;0.90;;;35.60;43.90;;;-141.50;100.00;62695.63;4949045;29;20619;-68
2022/05/02 08:43:32;;;;;;;0.30;0.30;;;36.30;43.00;;;-141.50;100.00;62695.63;4951196;29;21252;-68
2022/05/02 08:46:36;;;;;;;0.40;0.40;;;36.00;43.30;;;-141.50;100.00;62695.63;4961946;28;20627;-66
2022/05/02 08:49:35;;;;;;;0.37;0.37;;;36.80;42.80;;;-141.50;100.00;62695.63;4956309;28;20649;-66
2022/05/02 08:52:38;;;;;;;0.40;0.40;;;37.10;42.10;;;-141.50;100.00;62695.63;4935319;29;20644;-63
2022/05/02 08:55:46;;;;;;;0.40;0.40;;;36.70;41.50;;;-141.50;100.00;62695.63;4947276;29;20719;-63
2022/05/02 08:58:54;;;;;;;0.40;0.40;;;37.10;41.60;;;-141.50;100.00;62695.63;4951110;28;20653;-66
2022/05/02 09:01:36;;;;;;;0.33;0.33;;;36.60;41.20;;;-141.50;100.00;62695.63;4939173;28;20666;-65
2022/05/02 09:04:47;;;;;;;0.40;0.40;;;37.70;40.60;;;-141.50;100.00;62695.63;4947437;28;20680;-67
2022/05/02 09:07:45;;;;;;;0.40;0.40;;;39.20;39.20;;;-141.50;100.00;62695.63;4951875;28;21058;-68
2022/05/02 09:10:33;;;;;;;0.40;0.40;;;39.40;38.60;;;-141.50;100.00;62695.63;4942103;28;21188;-66
2022/05/02 09:14:01;;;;;;;0.50;0.50;;;40.50;38.00;;;-141.50;100.00;62695.63;4952452;28;20755;-67
2022/05/02 09:16:49;;;;;;;0.40;0.40;;;41.20;37.60;;;-141.50;100.00;62695.63;4941052;29;20646;-67
2022/05/02 09:19:58;;;;;;;0.40;0.40;;;41.60;37.80;;;-141.50;100.00;62695.63;4954608;29;20670;-66
2022/05/02 09:22:46;;;;;;;0.40;0.40;;;42.20;36.10;;;-141.50;100.00;62695.63;4952615;28;20750;-66
2022/05/02 09:25:45;;;;;;;0.40;0.40;;;40.70;37.40;;;-141.50;100.00;62695.63;4941235;29;20642;-66
2022/05/02 09:28:21;;;;;;;0.40;0.40;;;41.00;37.30;;;-141.50;100.00;62695.63;4934657;29;20981;-67
2022/05/02 09:31:24;;;;;;;0.40;0.40;;;40.70;37.20;;;-141.50;100.00;62695.63;4935983;29;20715;-68
2022/05/02 09:34:19;;;;;;;0.50;0.50;;;40.70;37.10;;;-141.50;100.00;62695.63;4950918;28;21265;-66
2022/05/02 09:37:07;;;;;;;0.40;0.40;;;41.40;36.90;;;-141.50;100.00;62695.63;4964500;28;20631;-66
2022/05/02 09:40:15;;;;;;;0.40;0.40;;;41.90;36.60;;;-141.50;100.00;62695.63;4962260;28;21201;-67
2022/05/02 09:43:12;;;;;;;0.40;0.40;;;42.40;36.10;;;-141.50;100.00;62695.63;4959632;28;20667;-67
2022/05/02 09:51:53;;;;;;;0.40;0.40;;;41.70;36.20;;;-141.50;100.00;62695.63;4952033;28;20653;-65
2022/05/02 09:58:03;;;;;;;0.40;0.40;;;42.00;35.60;;;-141.50;100.00;62695.63;4933426;29;20675;-68
2022/05/02 10:01:11;;;;;;;0.57;0.57;;;42.20;35.20;;;-141.50;100.00;62695.63;4944313;29;21085;-69
2022/05/02 10:04:12;;;;;;;0.40;0.40;;;42.50;35.10;;;-141.50;100.00;62695.63;4951058;28;20671;-70
2022/05/02 10:06:53;;;;;;;0.47;0.47;;;41.80;35.30;;;-141.50;100.00;62695.63;4955887;28;20616;-68
2022/05/02 10:09:48;;;;;;;0.40;0.40;;;40.60;35.30;;;-141.50;100.00;62695.63;4931079;28;20732;-69
2022/05/02 10:12:31;;;;;;;0.40;0.40;;;39.70;35.70;;;-141.50;100.00;62695.63;4955670;28;20652;-69
2022/05/02 10:15:54;;;;;;;0.40;0.40;;;39.00;35.90;;;-141.50;100.00;62695.63;4941359;28;20637;-70
2022/05/02 10:18:38;;;;;;;0.40;0.40;;;38.40;36.70;;;-141.50;100.00;62695.63;4955997;28;20639;-69
2022/05/02 10:21:47;;;;;;;0.40;0.40;;;38.00;36.70;;;-141.50;100.00;62695.63;4952824;28;20656;-67
2022/05/02 10:24:13;;;;;;;0.40;0.30;;;36.60;38.10;;;-141.50;100.00;62695.63;4945774;28;20707;-70
2022/05/02 10:27:17;;;;;;;0.40;0.40;;;35.80;39.30;;;-141.50;100.00;62695.63;4949293;28;20964;-66
2022/05/02 10:30:05;;;;;;;0.40;0.40;;;34.40;40.40;;;-141.50;100.00;62695.63;4901132;29;21260;-67
2022/05/02 10:32:50;;;;;;;0.40;0.30;;;31.00;42.40;;;-141.50;100.00;62695.63;4937148;28;20671;-66
2022/05/02 10:35:19;;;;;;;0.40;0.40;;;29.70;43.10;;;-141.50;100.00;62695.63;4933218;29;21144;-66
2022/05/02 10:38:00;;;;;;;0.40;0.30;;;28.30;44.30;;;-141.50;100.00;62695.63;4936884;29;20629;-65
2022/05/02 10:40:30;;;;;;;0.50;0.50;;;27.30;45.80;;;-141.50;100.00;62695.63;4937459;28;20635;-66
2022/05/02 10:43:03;;;;;;;0.40;0.30;;;26.60;48.00;;;-141.50;100.00;62695.63;4933890;29;20644;-65
2022/05/02 10:45:35;;;;;;;0.40;0.40;;;25.70;49.30;;;-141.50;100.00;62695.63;4934073;29;21231;-66
2022/05/02 10:48:41;;;;;;;0.40;0.40;;;25.10;50.70;;;-141.50;100.00;62695.63;4932044;29;20704;-67
2022/05/02 10:51:32;;;;;;;1.93;1.53;;;24.90;51.00;;;-141.50;100.00;62695.63;4934264;28;20657;-68
2022/05/02 10:54:09;;;;;;;0.40;0.30;;;24.30;51.90;;;-141.50;100.00;62695.63;4950461;29;21182;-66
2022/05/02 10:56:54;;;;;;;0.40;0.30;;;24.00;52.90;;;-141.50;100.00;62695.63;4951899;28;20715;-67
2022/05/02 10:59:24;;;;;;;0.40;0.30;;;23.80;53.70;;;-141.50;100.00;62695.63;4932503;29;20981;-67
2022/05/02 11:02:25;;;;;;;2.17;1.50;;;23.80;53.70;;;-141.50;100.00;62695.63;4917063;29;20659;-68
2022/05/02 11:05:01;;;;;;;0.40;0.30;;;23.70;54.10;;;-141.50;100.00;62695.63;4951972;28;21033;-67
2022/05/02 11:07:43;;;;;;;0.40;0.30;;;23.40;54.70;;;-141.50;100.00;62695.63;4953488;28;20624;-67
2022/05/02 11:10:13;;;;;;;0.40;0.30;;;23.40;54.40;;;-141.50;100.00;62695.63;4932150;29;20634;-67
2022/05/02 11:13:04;;;;;;;0.30;0.30;;;23.10;54.00;;;-141.50;100.00;62695.63;4948913;28;20651;-67
2022/05/02 11:16:00;;;;;;;0.40;0.30;;;22.90;55.30;;;-141.50;100.00;62695.63;4948738;28;20617;-68
2022/05/02 11:22:19;;;;;;;0.30;0.30;;;22.50;56.30;;;-141.50;100.00;62695.63;4934315;29;20651;-67
2022/05/02 11:25:21;;;;;;;0.30;0.30;;;22.40;56.80;;;-141.50;100.00;62695.63;4948575;29;20681;-66
2022/05/02 11:27:54;;;;;;;0.30;0.30;;;22.20;56.90;;;-141.50;100.00;62695.63;4932979;29;20624;-66
2022/05/02 11:30:29;;;;;;;0.30;0.30;;;22.00;57.40;;;-141.50;100.00;62695.63;4933862;29;20995;-66